Marseillais 6 — FQSJ — position and weather

sailwx.info

Track history (hours):
 
Tides and Currents Weather Stations Pressure Air Temp Water Temp Dewpoint Dewpoint Depression Visibility Wind Speed Wind Dir Waves Ship Positions

Marseillais 6

Last reported at 2017-Jan-19 16:32 UTC. Time now 2017-Jan-19 17:01 UTC.
Position N 43°25' E 004°53'.

Length 35 m; draft 5 m.

Type: Tug. MMSI: 227016900.

Date/timePositionNaut miles runAvg speedWind from/ knotsBaromVisibWave heightAir tempDewpointWater temp
2017-Jan-19 16:32N 43°25' E 004°53'1 0.1
2017-Jan-19 10:33N 43°24' E 004°53'1 0.3
2017-Jan-19 08:33N 43°25' E 004°53'1 1.3
2017-Jan-19 07:33N 43°24' E 004°52'2 0.5
2017-Jan-19 03:06N 43°26' E 004°54'0 0.0
2017-Jan-19 02:16N 43°26' E 004°54'0 0.0
2017-Jan-18 23:18N 43°26' E 004°54'0 0.0
2017-Jan-18 20:25N 43°26' E 004°54'1 0.2
2017-Jan-18 17:34N 43°25' E 004°53'2 2.0
2017-Jan-18 16:33N 43°25' E 004°51'1 1.0
2017-Jan-18 15:33N 43°24' E 004°52'1 1.1
2017-Jan-18 14:33N 43°25' E 004°51'2 0.9
2017-Jan-18 12:33N 43°25' E 004°53'0 0.3
2017-Jan-18 11:32N 43°24' E 004°53'1 0.9
2017-Jan-18 10:04N 43°26' E 004°54'0 0.0
2017-Jan-18 09:32N 43°26' E 004°54'0 0.0
2017-Jan-18 08:29N 43°26' E 004°54'0 0.0
2017-Jan-18 06:11N 43°26' E 004°54'0 0.0
2017-Jan-18 05:19N 43°26' E 004°54'0 0.0
2017-Jan-18 04:31N 43°26' E 004°54'1 1.3
2017-Jan-18 03:33N 43°24' E 004°53'1 1.3
2017-Jan-18 02:33N 43°26' E 004°54'0 0.0
2017-Jan-18 01:33N 43°26' E 004°54'0 0.0
2017-Jan-18 00:32N 43°26' E 004°54'0 0.0
2017-Jan-17 23:20N 43°26' E 004°54'0 0.0
2017-Jan-17 22:33N 43°26' E 004°54'0 0.0
2017-Jan-17 21:33N 43°26' E 004°54'0 0.0
2017-Jan-17 20:33N 43°26' E 004°54'0 0.0
2017-Jan-17 19:33N 43°26' E 004°54'3 2.9
2017-Jan-17 18:34N 43°25' E 004°50'2 2.4
2017-Jan-17 17:33N 43°24' E 004°53'5 4.8
2017-Jan-17 16:33N 43°24' E 004°60'3 3.0
2017-Jan-17 15:33N 43°24' E 004°56'2 2.4
2017-Jan-17 14:33N 43°26' E 004°54'0 0.0
2017-Jan-17 13:33N 43°26' E 004°54'0 0.0
2017-Jan-17 12:33N 43°26' E 004°54'0 0.0
2017-Jan-17 11:33N 43°26' E 004°54'0 0.0
2017-Jan-17 10:33N 43°26' E 004°54'0 0.0
2017-Jan-17 09:33N 43°26' E 004°54'0 0.0
2017-Jan-17 08:33N 43°26' E 004°54'0 0.0
2017-Jan-17 07:32N 43°26' E 004°54'0 0.0
2017-Jan-17 06:33N 43°26' E 004°54'0 0.0
2017-Jan-17 05:33N 43°26' E 004°54'0 0.0
2017-Jan-17 04:21N 43°26' E 004°54'0 0.0
2017-Jan-17 02:29N 43°26' E 004°54'0 0.0
2017-Jan-16 23:28N 43°26' E 004°54'0 0.0
2017-Jan-16 21:26N 43°26' E 004°54'0 0.0
2017-Jan-16 20:19N 43°26' E 004°54'3 1.0
2017-Jan-16 17:31N 43°25' E 004°50'3 1.3
2017-Jan-16 15:28N 43°26' E 004°54'0 0.0
2017-Jan-16 14:32N 43°26' E 004°54'0 0.0
2017-Jan-16 13:24N 43°26' E 004°54'0 0.0
2017-Jan-16 12:26N 43°26' E 004°54'0 0.0
2017-Jan-16 11:22N 43°26' E 004°54'0 0.0
2017-Jan-16 10:24N 43°26' E 004°54'0 0.0
2017-Jan-16 09:32N 43°26' E 004°54'0 0.0
2017-Jan-16 08:23N 43°26' E 004°54'1 1.6
2017-Jan-16 07:33N 43°24' E 004°53'0 0.5
2017-Jan-16 06:33N 43°25' E 004°53'0 0.1
2017-Jan-16 04:33N 43°25' E 004°53'1 1.5
2017-Jan-16 03:33N 43°24' E 004°51'1 1.3
2017-Jan-16 02:32N 43°25' E 004°53'1 0.2
2017-Jan-15 21:27N 43°26' E 004°54'0 0.0
2017-Jan-15 19:11N 43°26' E 004°54'2 3.9
2017-Jan-15 18:33N 43°25' E 004°51'2 1.5
2017-Jan-15 17:33N 43°25' E 004°53'1 0.9
2017-Jan-15 16:07N 43°26' E 004°54'0 0.0
2017-Jan-15 15:31N 43°26' E 004°54'0 0.0
2017-Jan-15 14:33N 43°26' E 004°54'0 0.0
2017-Jan-15 13:31N 43°26' E 004°54'1 0.8
2017-Jan-15 12:34N 43°25' E 004°53'1 0.2
2017-Jan-15 09:30N 43°26' E 004°54'0 0.0
2017-Jan-15 08:33N 43°26' E 004°54'0 0.0
2017-Jan-15 07:22N 43°26' E 004°54'5 5.5
2017-Jan-15 06:33N 43°24' E 004°60'0 0.4
2017-Jan-15 05:33N 43°24' E 004°59'0 0.0
2017-Jan-15 04:33N 43°24' E 004°59'0 0.0
2017-Jan-15 03:33N 43°24' E 004°59'0 0.0
2017-Jan-15 02:33N 43°24' E 004°59'0 0.0
2017-Jan-15 01:33N 43°24' E 004°59'0 0.0
2017-Jan-15 00:33N 43°24' E 004°59'0 0.0
2017-Jan-14 23:33N 43°24' E 004°59'0 0.0
2017-Jan-14 22:34N 43°24' E 004°59'0 0.0
2017-Jan-14 21:33N 43°24' E 004°59'0 0.0
2017-Jan-14 20:33N 43°24' E 004°59'0 0.0
2017-Jan-14 19:33N 43°24' E 004°59'0 0.0
2017-Jan-14 18:33N 43°24' E 004°59'1 0.6
2017-Jan-14 17:33N 43°24' E 004°60'1 0.6
2017-Jan-14 16:34N 43°24' E 004°59'0 0.4
2017-Jan-14 15:33N 43°24' E 004°59'4 4.4
2017-Jan-14 14:33N 43°25' E 004°53'0 0.3
2017-Jan-14 13:34N 43°25' E 004°53'2 2.0
2017-Jan-14 12:33N 43°25' E 004°51'6 6.2
2017-Jan-14 11:33N 43°24' E 004°59'0 0.3
2017-Jan-14 10:33N 43°24' E 004°59'0 0.3
2017-Jan-14 09:33N 43°24' E 004°59'0 0.0
2017-Jan-14 08:33N 43°24' E 004°59'0 0.0
2017-Jan-14 07:33N 43°24' E 004°59'0 0.0
2017-Jan-14 06:33N 43°24' E 004°59'0 0.0
2017-Jan-14 05:33N 43°24' E 004°59'0 0.0
2017-Jan-14 04:34N 43°24' E 004°59'0 0.0
2017-Jan-14 03:33N 43°24' E 004°59'0 0.0
2017-Jan-13 23:33N 43°24' E 004°59'0 0.0
2017-Jan-13 22:33N 43°24' E 004°59'0 0.0
2017-Jan-13 21:33N 43°24' E 004°59'0 0.1
2017-Jan-13 20:33N 43°24' E 004°59'6 5.3
2017-Jan-13 19:25N 43°25' E 004°51'0 0.1
2017-Jan-13 18:33N 43°25' E 004°51'0 0.3
2017-Jan-13 17:33N 43°25' E 004°51'6 5.8
2017-Jan-13 16:33N 43°24' E 004°59'0 0.0
2017-Jan-13 15:33N 43°24' E 004°59'0 0.0
2017-Jan-13 14:33N 43°24' E 004°59'0 0.0
2017-Jan-13 13:34N 43°24' E 004°59'0 0.0
2017-Jan-13 12:33N 43°24' E 004°59'0 0.0
2017-Jan-13 11:33N 43°24' E 004°59'0 0.0
2017-Jan-13 10:34N 43°24' E 004°59'5 5.0
2017-Jan-13 09:33N 43°24' E 004°52'1 0.6
2017-Jan-13 08:32N 43°24' E 004°53'4 4.4
2017-Jan-13 07:33N 43°24' E 004°59'0 0.0
2017-Jan-13 06:33N 43°24' E 004°59'0 0.0
2017-Jan-13 05:33N 43°24' E 004°59'0 0.0
2017-Jan-13 04:33N 43°24' E 004°59'0 0.5
2017-Jan-13 03:33N 43°24' E 004°60'0 0.5
2017-Jan-13 02:33N 43°24' E 004°59'0 0.0
2017-Jan-13 01:33N 43°24' E 004°59'0 0.5
2017-Jan-13 00:33N 43°24' E 004°60'1 1.0
2017-Jan-12 23:33N 43°23' E 004°59'1 0.6
2017-Jan-12 22:33N 43°24' E 004°59'0 0.0
2017-Jan-12 21:34N 43°24' E 004°59'0 0.0
2017-Jan-12 20:33N 43°24' E 004°59'0 0.0
2017-Jan-12 19:33N 43°24' E 004°59'0 0.0
2017-Jan-12 18:34N 43°24' E 004°59'0 0.0
2017-Jan-12 17:33N 43°24' E 004°59'0 0.0
2017-Jan-12 16:33N 43°24' E 004°59'0 0.0
2017-Jan-12 15:33N 43°24' E 004°59'0 0.0
2017-Jan-12 14:33N 43°24' E 004°59'0 0.0
2017-Jan-12 13:33N 43°24' E 004°59'0 0.0
2017-Jan-12 12:33N 43°24' E 004°59'0 0.3
2017-Jan-12 11:33N 43°24' E 004°59'5 5.3
2017-Jan-12 10:33N 43°24' E 004°52'5 5.4
2017-Jan-12 09:34N 43°24' E 004°59'0 0.0
2017-Jan-12 08:33N 43°24' E 004°59'0 0.0
2017-Jan-12 07:34N 43°24' E 004°59'0 0.0
2017-Jan-12 06:33N 43°24' E 004°59'0 0.5
2017-Jan-12 05:33N 43°24' E 004°60'0 0.5
2017-Jan-12 04:33N 43°24' E 004°59'0 0.0
2017-Jan-12 03:33N 43°24' E 004°59'0 0.0
2017-Jan-12 02:33N 43°24' E 004°59'0 0.2
2017-Jan-12 01:33N 43°24' E 004°59'0 0.2
2017-Jan-12 00:33N 43°24' E 004°59'0 0.0
2017-Jan-11 23:34N 43°24' E 004°59'0 0.0
2017-Jan-11 22:34N 43°24' E 004°59'0 0.0
2017-Jan-11 21:33N 43°24' E 004°59'0 0.0
2017-Jan-11 20:33N 43°24' E 004°59'4 4.2
2017-Jan-11 19:33N 43°24' E 004°53'1 0.5
2017-Jan-11 18:33N 43°24' E 004°54'4 3.9
2017-Jan-11 17:33N 43°24' E 004°59'3 2.6
2017-Jan-11 16:33N 43°21' E 004°58'1 1.3
2017-Jan-11 15:32N 43°20' E 004°57'4 4.3
2017-Jan-11 14:34N 43°24' E 004°54'1 0.6
2017-Jan-11 13:31N 43°24' E 004°53'4 4.3
2017-Jan-11 12:33N 43°24' E 004°59'0 0.0
2017-Jan-11 11:33N 43°24' E 004°59'0 0.0
2017-Jan-11 10:33N 43°24' E 004°59'0 0.0
2017-Jan-11 09:33N 43°24' E 004°59'0 0.0
2017-Jan-11 08:34N 43°24' E 004°59'4 4.4
2017-Jan-11 07:33N 43°25' E 004°53'1 0.8
2017-Jan-11 06:33N 43°26' E 004°54'0 0.0
2017-Jan-11 05:33N 43°26' E 004°54'0 0.0
2017-Jan-11 04:33N 43°26' E 004°54'0 0.0
2017-Jan-11 03:33N 43°26' E 004°54'0 0.0
2017-Jan-11 02:33N 43°26' E 004°54'0 0.0
2017-Jan-11 01:33N 43°26' E 004°54'0 0.0
2017-Jan-11 00:33N 43°26' E 004°54'0 0.0
2017-Jan-10 23:33N 43°26' E 004°54'2 2.0
2017-Jan-10 22:33N 43°24' E 004°52'1 0.6
2017-Jan-10 21:29N 43°24' E 004°53'2 1.9
2017-Jan-10 20:33N 43°26' E 004°54'1 0.7
2017-Jan-10 19:33N 43°25' E 004°53'2 1.6
2017-Jan-10 18:33N 43°24' E 004°51'2 2.2
2017-Jan-10 17:33N 43°26' E 004°54'0 0.0
2017-Jan-10 16:33N 43°26' E 004°54'0 0.0
2017-Jan-10 15:33N 43°26' E 004°54'1 1.1
2017-Jan-10 14:33N 43°25' E 004°54'1 1.1
2017-Jan-10 13:33N 43°26' E 004°54'2 2.3
2017-Jan-10 12:33N 43°24' E 004°51'2 2.3
2017-Jan-10 11:33N 43°26' E 004°54'0 0.1
2017-Jan-10 10:34N 43°26' E 004°54'0 0.0
2017-Jan-10 09:34N 43°26' E 004°54'0 0.0
2017-Jan-10 08:33N 43°26' E 004°54'0 0.0
2017-Jan-10 07:33N 43°26' E 004°54'0 0.0
2017-Jan-10 06:34N 43°26' E 004°54'0 0.0
2017-Jan-10 05:34N 43°26' E 004°54'0 0.0
2017-Jan-10 04:33N 43°26' E 004°54'0 0.0
2017-Jan-10 03:33N 43°26' E 004°54'0 0.0
2017-Jan-10 02:33N 43°26' E 004°54'0 0.0
2017-Jan-10 01:33N 43°26' E 004°54'0 0.0
2017-Jan-10 00:33N 43°26' E 004°54'0 0.0
2017-Jan-09 23:33N 43°26' E 004°54'2 1.7
2017-Jan-09 22:33N 43°24' E 004°53'1 0.6
2017-Jan-09 21:33N 43°25' E 004°53'1 1.2
2017-Jan-09 20:33N 43°26' E 004°54'0 0.0
2017-Jan-09 19:34N 43°26' E 004°54'0 0.0
2017-Jan-09 18:31N 43°26' E 004°54'1 0.9
2017-Jan-09 17:33N 43°25' E 004°53'1 0.7
2017-Jan-09 16:33N 43°25' E 004°54'  
Track history (hours):
 
Tides and Currents Weather Stations Pressure Air Temp Water Temp Dewpoint Dewpoint Depression Visibility Wind Speed Wind Dir Waves Ship Positions

Marseillais 6

Last reported at 2017-Jan-19 16:32 UTC. Time now 2017-Jan-19 17:01 UTC.
Position N 43°25' E 004°53'.

Length 35 m; draft 5 m.

Type: Tug. MMSI: 227016900.

Date/timePositionNaut miles runAvg speedWind from/ knotsBaromVisibWave heightAir tempDewpointWater temp
2017-Jan-19 16:32N 43°25' E 004°53'1 0.1
2017-Jan-19 10:33N 43°24' E 004°53'1 0.3
2017-Jan-19 08:33N 43°25' E 004°53'1 1.3
2017-Jan-19 07:33N 43°24' E 004°52'2 0.5
2017-Jan-19 03:06N 43°26' E 004°54'0 0.0
2017-Jan-19 02:16N 43°26' E 004°54'0 0.0
2017-Jan-18 23:18N 43°26' E 004°54'0 0.0
2017-Jan-18 20:25N 43°26' E 004°54'1 0.2
2017-Jan-18 17:34N 43°25' E 004°53'2 2.0
2017-Jan-18 16:33N 43°25' E 004°51'1 1.0
2017-Jan-18 15:33N 43°24' E 004°52'1 1.1
2017-Jan-18 14:33N 43°25' E 004°51'2 0.9
2017-Jan-18 12:33N 43°25' E 004°53'0 0.3
2017-Jan-18 11:32N 43°24' E 004°53'1 0.9
2017-Jan-18 10:04N 43°26' E 004°54'0 0.0
2017-Jan-18 09:32N 43°26' E 004°54'0 0.0
2017-Jan-18 08:29N 43°26' E 004°54'0 0.0
2017-Jan-18 06:11N 43°26' E 004°54'0 0.0
2017-Jan-18 05:19N 43°26' E 004°54'0 0.0
2017-Jan-18 04:31N 43°26' E 004°54'1 1.3
2017-Jan-18 03:33N 43°24' E 004°53'1 1.3
2017-Jan-18 02:33N 43°26' E 004°54'0 0.0
2017-Jan-18 01:33N 43°26' E 004°54'0 0.0
2017-Jan-18 00:32N 43°26' E 004°54'0 0.0
2017-Jan-17 23:20N 43°26' E 004°54'0 0.0
2017-Jan-17 22:33N 43°26' E 004°54'0 0.0
2017-Jan-17 21:33N 43°26' E 004°54'0 0.0
2017-Jan-17 20:33N 43°26' E 004°54'0 0.0
2017-Jan-17 19:33N 43°26' E 004°54'3 2.9
2017-Jan-17 18:34N 43°25' E 004°50'2 2.4
2017-Jan-17 17:33N 43°24' E 004°53'5 4.8
2017-Jan-17 16:33N 43°24' E 004°60'3 3.0
2017-Jan-17 15:33N 43°24' E 004°56'2 2.4
2017-Jan-17 14:33N 43°26' E 004°54'0 0.0
2017-Jan-17 13:33N 43°26' E 004°54'0 0.0
2017-Jan-17 12:33N 43°26' E 004°54'0 0.0
2017-Jan-17 11:33N 43°26' E 004°54'0 0.0
2017-Jan-17 10:33N 43°26' E 004°54'0 0.0
2017-Jan-17 09:33N 43°26' E 004°54'0 0.0
2017-Jan-17 08:33N 43°26' E 004°54'0 0.0
2017-Jan-17 07:32N 43°26' E 004°54'0 0.0
2017-Jan-17 06:33N 43°26' E 004°54'0 0.0
2017-Jan-17 05:33N 43°26' E 004°54'0 0.0
2017-Jan-17 04:21N 43°26' E 004°54'0 0.0
2017-Jan-17 02:29N 43°26' E 004°54'0 0.0
2017-Jan-16 23:28N 43°26' E 004°54'0 0.0
2017-Jan-16 21:26N 43°26' E 004°54'0 0.0
2017-Jan-16 20:19N 43°26' E 004°54'3 1.0
2017-Jan-16 17:31N 43°25' E 004°50'3 1.3
2017-Jan-16 15:28N 43°26' E 004°54'0 0.0
2017-Jan-16 14:32N 43°26' E 004°54'0 0.0
2017-Jan-16 13:24N 43°26' E 004°54'0 0.0
2017-Jan-16 12:26N 43°26' E 004°54'0 0.0
2017-Jan-16 11:22N 43°26' E 004°54'0 0.0
2017-Jan-16 10:24N 43°26' E 004°54'0 0.0
2017-Jan-16 09:32N 43°26' E 004°54'0 0.0
2017-Jan-16 08:23N 43°26' E 004°54'1 1.6
2017-Jan-16 07:33N 43°24' E 004°53'0 0.5
2017-Jan-16 06:33N 43°25' E 004°53'0 0.1
2017-Jan-16 04:33N 43°25' E 004°53'1 1.5
2017-Jan-16 03:33N 43°24' E 004°51'1 1.3
2017-Jan-16 02:32N 43°25' E 004°53'1 0.2
2017-Jan-15 21:27N 43°26' E 004°54'0 0.0
2017-Jan-15 19:11N 43°26' E 004°54'2 3.9
2017-Jan-15 18:33N 43°25' E 004°51'2 1.5
2017-Jan-15 17:33N 43°25' E 004°53'1 0.9
2017-Jan-15 16:07N 43°26' E 004°54'0 0.0
2017-Jan-15 15:31N 43°26' E 004°54'0 0.0
2017-Jan-15 14:33N 43°26' E 004°54'0 0.0
2017-Jan-15 13:31N 43°26' E 004°54'1 0.8
2017-Jan-15 12:34N 43°25' E 004°53'1 0.2
2017-Jan-15 09:30N 43°26' E 004°54'0 0.0
2017-Jan-15 08:33N 43°26' E 004°54'0 0.0
2017-Jan-15 07:22N 43°26' E 004°54'5 5.5
2017-Jan-15 06:33N 43°24' E 004°60'0 0.4
2017-Jan-15 05:33N 43°24' E 004°59'0 0.0
2017-Jan-15 04:33N 43°24' E 004°59'0 0.0
2017-Jan-15 03:33N 43°24' E 004°59'0 0.0
2017-Jan-15 02:33N 43°24' E 004°59'0 0.0
2017-Jan-15 01:33N 43°24' E 004°59'0 0.0
2017-Jan-15 00:33N 43°24' E 004°59'0 0.0
2017-Jan-14 23:33N 43°24' E 004°59'0 0.0
2017-Jan-14 22:34N 43°24' E 004°59'0 0.0
2017-Jan-14 21:33N 43°24' E 004°59'0 0.0
2017-Jan-14 20:33N 43°24' E 004°59'0 0.0
2017-Jan-14 19:33N 43°24' E 004°59'0 0.0
2017-Jan-14 18:33N 43°24' E 004°59'1 0.6
2017-Jan-14 17:33N 43°24' E 004°60'1 0.6
2017-Jan-14 16:34N 43°24' E 004°59'0 0.4
2017-Jan-14 15:33N 43°24' E 004°59'4 4.4
2017-Jan-14 14:33N 43°25' E 004°53'0 0.3
2017-Jan-14 13:34N 43°25' E 004°53'2 2.0
2017-Jan-14 12:33N 43°25' E 004°51'6 6.2
2017-Jan-14 11:33N 43°24' E 004°59'0 0.3
2017-Jan-14 10:33N 43°24' E 004°59'0 0.3
2017-Jan-14 09:33N 43°24' E 004°59'0 0.0
2017-Jan-14 08:33N 43°24' E 004°59'0 0.0
2017-Jan-14 07:33N 43°24' E 004°59'0 0.0
2017-Jan-14 06:33N 43°24' E 004°59'0 0.0
2017-Jan-14 05:33N 43°24' E 004°59'0 0.0
2017-Jan-14 04:34N 43°24' E 004°59'0 0.0
2017-Jan-14 03:33N 43°24' E 004°59'0 0.0
2017-Jan-13 23:33N 43°24' E 004°59'0 0.0
2017-Jan-13 22:33N 43°24' E 004°59'0 0.0
2017-Jan-13 21:33N 43°24' E 004°59'0 0.1
2017-Jan-13 20:33N 43°24' E 004°59'6 5.3
2017-Jan-13 19:25N 43°25' E 004°51'0 0.1
2017-Jan-13 18:33N 43°25' E 004°51'0 0.3
2017-Jan-13 17:33N 43°25' E 004°51'6 5.8
2017-Jan-13 16:33N 43°24' E 004°59'0 0.0
2017-Jan-13 15:33N 43°24' E 004°59'0 0.0
2017-Jan-13 14:33N 43°24' E 004°59'0 0.0
2017-Jan-13 13:34N 43°24' E 004°59'0 0.0
2017-Jan-13 12:33N 43°24' E 004°59'0 0.0
2017-Jan-13 11:33N 43°24' E 004°59'0 0.0
2017-Jan-13 10:34N 43°24' E 004°59'5 5.0
2017-Jan-13 09:33N 43°24' E 004°52'1 0.6
2017-Jan-13 08:32N 43°24' E 004°53'4 4.4
2017-Jan-13 07:33N 43°24' E 004°59'0 0.0
2017-Jan-13 06:33N 43°24' E 004°59'0 0.0
2017-Jan-13 05:33N 43°24' E 004°59'0 0.0
2017-Jan-13 04:33N 43°24' E 004°59'0 0.5
2017-Jan-13 03:33N 43°24' E 004°60'0 0.5
2017-Jan-13 02:33N 43°24' E 004°59'0 0.0
2017-Jan-13 01:33N 43°24' E 004°59'0 0.5
2017-Jan-13 00:33N 43°24' E 004°60'1 1.0
2017-Jan-12 23:33N 43°23' E 004°59'1 0.6
2017-Jan-12 22:33N 43°24' E 004°59'0 0.0
2017-Jan-12 21:34N 43°24' E 004°59'0 0.0
2017-Jan-12 20:33N 43°24' E 004°59'0 0.0
2017-Jan-12 19:33N 43°24' E 004°59'0 0.0
2017-Jan-12 18:34N 43°24' E 004°59'0 0.0
2017-Jan-12 17:33N 43°24' E 004°59'0 0.0
2017-Jan-12 16:33N 43°24' E 004°59'0 0.0
2017-Jan-12 15:33N 43°24' E 004°59'0 0.0
2017-Jan-12 14:33N 43°24' E 004°59'0 0.0
2017-Jan-12 13:33N 43°24' E 004°59'0 0.0
2017-Jan-12 12:33N 43°24' E 004°59'0 0.3
2017-Jan-12 11:33N 43°24' E 004°59'5 5.3
2017-Jan-12 10:33N 43°24' E 004°52'5 5.4
2017-Jan-12 09:34N 43°24' E 004°59'0 0.0
2017-Jan-12 08:33N 43°24' E 004°59'0 0.0
2017-Jan-12 07:34N 43°24' E 004°59'0 0.0
2017-Jan-12 06:33N 43°24' E 004°59'0 0.5
2017-Jan-12 05:33N 43°24' E 004°60'0 0.5
2017-Jan-12 04:33N 43°24' E 004°59'0 0.0
2017-Jan-12 03:33N 43°24' E 004°59'0 0.0
2017-Jan-12 02:33N 43°24' E 004°59'0 0.2
2017-Jan-12 01:33N 43°24' E 004°59'0 0.2
2017-Jan-12 00:33N 43°24' E 004°59'0 0.0
2017-Jan-11 23:34N 43°24' E 004°59'0 0.0
2017-Jan-11 22:34N 43°24' E 004°59'0 0.0
2017-Jan-11 21:33N 43°24' E 004°59'0 0.0
2017-Jan-11 20:33N 43°24' E 004°59'4 4.2
2017-Jan-11 19:33N 43°24' E 004°53'1 0.5
2017-Jan-11 18:33N 43°24' E 004°54'4 3.9
2017-Jan-11 17:33N 43°24' E 004°59'3 2.6
2017-Jan-11 16:33N 43°21' E 004°58'1 1.3
2017-Jan-11 15:32N 43°20' E 004°57'4 4.3
2017-Jan-11 14:34N 43°24' E 004°54'1 0.6
2017-Jan-11 13:31N 43°24' E 004°53'4 4.3
2017-Jan-11 12:33N 43°24' E 004°59'0 0.0
2017-Jan-11 11:33N 43°24' E 004°59'0 0.0
2017-Jan-11 10:33N 43°24' E 004°59'0 0.0
2017-Jan-11 09:33N 43°24' E 004°59'0 0.0
2017-Jan-11 08:34N 43°24' E 004°59'4 4.4
2017-Jan-11 07:33N 43°25' E 004°53'1 0.8
2017-Jan-11 06:33N 43°26' E 004°54'0 0.0
2017-Jan-11 05:33N 43°26' E 004°54'0 0.0
2017-Jan-11 04:33N 43°26' E 004°54'0 0.0
2017-Jan-11 03:33N 43°26' E 004°54'0 0.0
2017-Jan-11 02:33N 43°26' E 004°54'0 0.0
2017-Jan-11 01:33N 43°26' E 004°54'0 0.0
2017-Jan-11 00:33N 43°26' E 004°54'0 0.0
2017-Jan-10 23:33N 43°26' E 004°54'2 2.0
2017-Jan-10 22:33N 43°24' E 004°52'1 0.6
2017-Jan-10 21:29N 43°24' E 004°53'2 1.9
2017-Jan-10 20:33N 43°26' E 004°54'1 0.7
2017-Jan-10 19:33N 43°25' E 004°53'2 1.6
2017-Jan-10 18:33N 43°24' E 004°51'2 2.2
2017-Jan-10 17:33N 43°26' E 004°54'0 0.0
2017-Jan-10 16:33N 43°26' E 004°54'0 0.0
2017-Jan-10 15:33N 43°26' E 004°54'1 1.1
2017-Jan-10 14:33N 43°25' E 004°54'1 1.1
2017-Jan-10 13:33N 43°26' E 004°54'2 2.3
2017-Jan-10 12:33N 43°24' E 004°51'2 2.3
2017-Jan-10 11:33N 43°26' E 004°54'0 0.1
2017-Jan-10 10:34N 43°26' E 004°54'0 0.0
2017-Jan-10 09:34N 43°26' E 004°54'0 0.0
2017-Jan-10 08:33N 43°26' E 004°54'0 0.0
2017-Jan-10 07:33N 43°26' E 004°54'0 0.0
2017-Jan-10 06:34N 43°26' E 004°54'0 0.0
2017-Jan-10 05:34N 43°26' E 004°54'0 0.0
2017-Jan-10 04:33N 43°26' E 004°54'0 0.0
2017-Jan-10 03:33N 43°26' E 004°54'0 0.0
2017-Jan-10 02:33N 43°26' E 004°54'0 0.0
2017-Jan-10 01:33N 43°26' E 004°54'0 0.0
2017-Jan-10 00:33N 43°26' E 004°54'0 0.0
2017-Jan-09 23:33N 43°26' E 004°54'2 1.7
2017-Jan-09 22:33N 43°24' E 004°53'1 0.6
2017-Jan-09 21:33N 43°25' E 004°53'1 1.2
2017-Jan-09 20:33N 43°26' E 004°54'0 0.0
2017-Jan-09 19:34N 43°26' E 004°54'0 0.0
2017-Jan-09 18:31N 43°26' E 004°54'1 0.9
2017-Jan-09 17:33N 43°25' E 004°53'1 0.7
2017-Jan-09 16:33N 43°25' E 004°54'  

Dump ship's entire track history